Time;durP1;ratioP1;P1;durP2;ratioP2;P2;SDS_P1;SDS_P2;PMS_P1;PMS_P2;Temp;Humidity;BMP_temperature;BMP_pressure;BME280_temperature;BME280_humidity;BME280_pressure;Samples;Min_cycle;Max_cycle;Signal;HPM_P1;HPM_P2
2022/12/02 00:01:18;;;;;;;;;9.20;9.00;;;;;4.62;81.29;100736.22;5096284;28;8816;-58
2022/12/02 00:03:46;;;;;;;;;17.60;13.00;;;;;4.62;81.47;100738.84;5096116;28;8838;-56
2022/12/02 00:06:14;;;;;;;;;16.40;14.80;;;;;4.62;81.52;100735.34;5096355;28;8839;-58
2022/12/02 00:08:41;;;;;;;;;16.40;15.80;;;;;4.62;81.50;100740.63;5096221;28;8850;-58
2022/12/02 00:11:10;;;;;;;;;17.20;12.60;;;;;4.61;81.10;100733.63;5096352;28;8812;-59
2022/12/02 00:13:38;;;;;;;;;21.20;19.60;;;;;4.59;81.36;100733.72;5096240;28;8815;-58
2022/12/02 00:16:05;;;;;;;;;15.40;11.00;;;;;4.60;81.38;100734.56;5096192;28;8819;-59
2022/12/02 00:18:33;;;;;;;;;11.40;9.60;;;;;4.60;81.23;100735.44;5096561;28;8855;-58
2022/12/02 00:21:01;;;;;;;;;14.80;13.00;;;;;4.61;81.20;100733.63;5096416;28;8950;-59
2022/12/02 00:23:29;;;;;;;;;21.40;17.20;;;;;4.61;81.51;100736.25;5096502;28;8835;-59
2022/12/02 00:25:57;;;;;;;;;17.20;15.80;;;;;4.62;81.43;100733.56;5096561;28;8832;-56
2022/12/02 00:28:25;;;;;;;;;16.00;13.40;;;;;4.65;81.20;100732.59;5096535;28;8823;-58
2022/12/02 00:30:52;;;;;;;;;15.00;15.00;;;;;4.65;81.24;100722.03;5095906;28;8819;-59
2022/12/02 00:33:20;;;;;;;;;16.80;15.00;;;;;4.65;81.13;100725.50;5096089;28;8823;-57
2022/12/02 00:35:48;;;;;;;;;17.40;16.20;;;;;4.66;80.54;100715.84;5095909;28;8915;-58
2022/12/02 00:38:15;;;;;;;;;18.40;17.40;;;;;4.68;80.81;100708.72;5096356;28;8940;-56
2022/12/02 00:40:43;;;;;;;;;20.20;18.40;;;;;4.69;81.33;100718.31;5095899;28;8937;-59
2022/12/02 00:48:41;;;;;;;;;17.60;14.40;;;;;4.62;80.98;100706.31;5095973;28;8823;-58
2022/12/02 00:51:09;;;;;;;;;17.60;16.00;;;;;4.61;80.82;100709.91;5095742;28;8816;-59
2022/12/02 00:53:36;;;;;;;;;14.00;12.80;;;;;4.62;81.46;100712.47;5095135;28;8843;-58
2022/12/02 00:56:04;;;;;;;;;11.40;10.20;;;;;4.61;81.35;100709.91;5095355;28;8816;-58
2022/12/02 00:58:32;;;;;;;;;18.20;15.20;;;;;4.64;80.72;100709.78;5095252;28;8847;-56
2022/12/02 01:00:59;;;;;;;;;14.60;11.60;;;;;4.64;81.38;100705.34;5095038;28;8819;-58
2022/12/02 01:03:27;;;;;;;;;10.40;9.80;;;;;4.62;80.72;100704.56;5095126;28;8816;-57
2022/12/02 01:05:55;;;;;;;;;11.20;9.60;;;;;4.61;81.15;100704.63;5094929;28;8846;-57
2022/12/02 01:08:26;;;;;;;;;15.20;14.00;;;;;4.62;80.94;100704.56;5095060;28;8820;-58
2022/12/02 01:10:54;;;;;;;;;15.00;12.80;;;;;4.62;81.27;100701.91;5094936;28;8812;-58
2022/12/02 01:13:22;;;;;;;;;16.60;16.20;;;;;4.59;80.91;100702.06;5095185;28;8831;-59
2022/12/02 01:15:50;;;;;;;;;16.60;16.00;;;;;4.58;81.67;100695.06;5095048;28;8820;-58
2022/12/02 01:18:18;;;;;;;;;7.20;6.20;;;;;4.59;80.98;100693.28;5087564;28;8836;-58
2022/12/02 01:20:45;;;;;;;;;25.20;19.40;;;;;4.60;80.96;100689.72;5094430;28;8827;-57
2022/12/02 01:23:13;;;;;;;;;19.40;18.60;;;;;4.59;81.12;100690.66;5095178;28;8831;-58
2022/12/02 01:25:41;;;;;;;;;15.60;15.00;;;;;4.58;81.14;100683.66;5095361;28;8896;-58
2022/12/02 01:28:08;;;;;;;;;16.40;16.00;;;;;4.59;80.99;100682.75;5095747;28;8848;-58
2022/12/02 01:30:36;;;;;;;;;23.00;21.00;;;;;4.59;80.92;100680.09;5095606;28;8820;-58
2022/12/02 01:33:04;;;;;;;;;12.40;9.80;;;;;4.59;81.16;100690.66;5095573;28;8824;-56
2022/12/02 01:35:31;;;;;;;;;17.40;15.40;;;;;4.59;80.66;100680.97;5095418;28;8873;-59
2022/12/02 01:38:00;;;;;;;;;9.80;9.80;;;;;4.61;81.58;100683.53;5095718;28;8815;-58
2022/12/02 01:40:28;;;;;;;;;14.00;13.40;;;;;4.59;80.98;100688.88;5095089;28;8896;-57
2022/12/02 01:42:55;;;;;;;;;20.60;17.80;;;;;4.58;81.26;100686.31;5095249;28;9691;-57
2022/12/02 01:45:23;;;;;;;;;24.00;18.80;;;;;4.57;81.13;100684.59;5095469;28;9500;-59
2022/12/02 01:47:51;;;;;;;;;15.60;14.60;;;;;4.56;81.13;100693.44;5095448;28;8827;-58
2022/12/02 01:50:20;;;;;;;;;18.40;14.60;;;;;4.56;81.40;100690.78;5095294;28;8847;-57
2022/12/02 01:52:47;;;;;;;;;18.80;18.60;;;;;4.57;81.50;100698.63;5095221;28;8847;-56
2022/12/02 01:55:21;;;;;;;;;18.80;17.60;;;;;4.56;81.35;100691.63;5095543;28;8823;-57
2022/12/02 01:57:48;;;;;;;;;21.00;19.80;;;;;4.58;81.45;100689.78;5095257;28;8904;-59
2022/12/02 02:00:16;;;;;;;;;20.20;16.80;;;;;4.59;80.97;100690.66;5095245;28;8835;-56
2022/12/02 02:02:47;;;;;;;;;21.20;19.60;;;;;4.58;81.28;100688.94;5095003;28;8848;-56
2022/12/02 02:05:14;;;;;;;;;23.40;21.00;;;;;4.58;81.23;100684.50;5094614;28;8828;-58
2022/12/02 02:07:42;;;;;;;;;20.40;16.40;;;;;4.58;81.30;100678.41;5095505;28;8823;-57
2022/12/02 02:10:10;;;;;;;;;16.60;13.80;;;;;4.59;81.35;100680.09;5095328;28;8827;-58
2022/12/02 02:12:37;;;;;;;;;22.20;19.20;;;;;4.59;80.99;100686.25;5095099;28;8851;-59
2022/12/02 02:15:05;;;;;;;;;18.20;16.40;;;;;4.60;81.29;100681.81;5095186;28;8945;-58
2022/12/02 02:17:33;;;;;;;;;17.60;15.80;;;;;4.59;81.00;100682.75;5095157;28;8811;-56
2022/12/02 02:20:00;;;;;;;;;21.00;17.20;;;;;4.59;80.82;100678.34;5094793;28;8824;-59
2022/12/02 02:22:28;;;;;;;;;21.60;17.20;;;;;4.61;81.73;100673.84;5095256;28;8815;-59
2022/12/02 02:24:56;;;;;;;;;18.60;16.00;;;;;4.60;81.61;100677.41;5095038;28;8808;-59
2022/12/02 02:27:24;;;;;;;;;15.60;13.00;;;;;4.59;81.24;100673.06;5095057;28;8823;-58
2022/12/02 02:29:51;;;;;;;;;19.40;16.00;;;;;4.59;80.86;100669.56;5094089;28;8824;-58
2022/12/02 02:32:19;;;;;;;;;23.00;20.20;;;;;4.58;81.75;100662.56;5095426;28;8828;-58
2022/12/02 02:34:47;;;;;;;;;24.20;20.00;;;;;4.57;81.92;100666.97;5096856;28;8938;-57
2022/12/02 02:37:15;;;;;;;;;21.40;18.40;;;;;4.58;81.00;100662.56;5096703;28;8954;-57
2022/12/02 02:39:43;;;;;;;;;19.80;16.40;;;;;4.57;81.40;100661.69;5097521;28;9489;-59
2022/12/02 02:42:11;;;;;;;;;17.60;16.40;;;;;4.58;81.18;100652.03;5097389;28;8839;-58
2022/12/02 02:44:39;;;;;;;;;16.40;15.00;;;;;4.57;81.06;100656.44;5097511;28;8827;-58
2022/12/02 02:47:06;;;;;;;;;24.80;19.60;;;;;4.59;81.83;100659.00;5098188;28;8832;-58
2022/12/02 02:49:34;;;;;;;;;11.20;10.80;;;;;4.60;81.27;100650.16;5098009;28;8897;-59
2022/12/02 02:52:02;;;;;;;;;15.00;12.80;;;;;4.60;81.20;100650.16;5098571;28;8835;-58
2022/12/02 02:54:30;;;;;;;;;15.20;13.80;;;;;4.61;81.71;100652.75;5098200;28;8824;-56
2022/12/02 02:56:57;;;;;;;;;16.40;15.00;;;;;4.62;81.65;100637.75;5098103;28;8827;-57
2022/12/02 02:59:25;;;;;;;;;13.80;10.00;;;;;4.63;81.40;100644.78;5097659;28;8851;-58
2022/12/02 03:01:53;;;;;;;;;13.60;11.60;;;;;4.63;81.41;100636.88;5098187;28;8846;-59
2022/12/02 03:04:21;;;;;;;;;13.40;11.80;;;;;4.62;81.22;100640.41;5098323;28;8820;-59
2022/12/02 03:06:49;;;;;;;;;21.20;18.20;;;;;4.61;81.33;100641.31;5098060;28;8812;-56
2022/12/02 03:09:17;;;;;;;;;22.00;18.80;;;;;4.60;81.53;100629.94;5097741;28;8832;-58
2022/12/02 03:11:44;;;;;;;;;19.00;18.40;;;;;4.62;81.32;100627.22;5098090;28;8901;-59
2022/12/02 03:14:12;;;;;;;;;24.80;20.80;;;;;4.63;81.23;100626.31;5097839;28;8840;-58
2022/12/02 03:16:43;;;;;;;;;16.80;15.60;;;;;4.60;81.51;100618.53;5097838;28;8816;-59
2022/12/02 03:19:11;;;;;;;;;15.80;14.80;;;;;4.58;81.44;100623.00;5097616;28;8854;-59
2022/12/02 03:21:39;;;;;;;;;20.20;14.80;;;;;4.57;81.28;100619.50;5097783;28;8823;-58
2022/12/02 03:24:06;;;;;;;;;21.20;18.60;;;;;4.57;81.59;100616.03;5097938;28;8816;-59
2022/12/02 03:26:34;;;;;;;;;16.80;13.80;;;;;4.56;81.14;100616.97;5097810;28;8827;-58
2022/12/02 03:29:02;;;;;;;;;21.20;19.40;;;;;4.57;81.63;100613.41;5097667;28;8854;-59
2022/12/02 03:31:31;;;;;;;;;19.40;17.60;;;;;4.56;81.89;100617.78;5097192;28;8815;-59
2022/12/02 03:33:58;;;;;;;;;18.80;17.60;;;;;4.57;81.24;100618.66;5096856;28;8942;-59
2022/12/02 03:36:26;;;;;;;;;15.40;13.80;;;;;4.57;81.53;100613.41;5097272;28;8851;-59
2022/12/02 03:38:54;;;;;;;;;18.40;14.80;;;;;4.57;81.77;100613.41;5097178;28;8811;-58
2022/12/02 03:41:23;;;;;;;;;10.00;8.60;;;;;4.55;81.66;100604.66;5096824;28;8838;-58
2022/12/02 03:43:50;;;;;;;;;19.60;18.00;;;;;4.53;81.85;100603.88;5096394;28;8808;-59
2022/12/02 03:46:18;;;;;;;;;9.60;9.20;;;;;4.54;81.79;100613.50;5097327;28;8828;-59
2022/12/02 03:48:46;;;;;;;;;15.20;14.00;;;;;4.53;81.43;100606.53;5097072;28;8885;-58
2022/12/02 03:51:13;;;;;;;;;13.60;12.40;;;;;4.53;81.21;100601.25;5097037;28;8824;-58
2022/12/02 03:53:44;;;;;;;;;19.00;16.00;;;;;4.53;81.31;100601.25;5096733;28;8908;-58
2022/12/02 03:56:12;;;;;;;;;21.00;17.80;;;;;4.54;81.32;100611.75;5097422;28;8939;-58
2022/12/02 03:58:40;;;;;;;;;17.60;15.60;;;;;4.55;81.91;100607.31;5097055;28;8812;-59
2022/12/02 04:01:07;;;;;;;;;25.20;21.80;;;;;4.54;81.36;100608.25;5096925;28;8893;-59
2022/12/02 04:03:35;;;;;;;;;16.40;14.60;;;;;4.50;81.32;100601.41;5096518;28;8843;-59
2022/12/02 04:06:04;;;;;;;;;14.20;13.00;;;;;4.47;81.65;100596.25;5097120;28;8858;-59
2022/12/02 04:08:31;;;;;;;;;17.60;16.20;;;;;4.46;81.58;100590.13;5096682;28;8816;-59
2022/12/02 04:10:59;;;;;;;;;16.40;15.20;;;;;4.46;81.45;100584.00;5096444;28;8828;-59
2022/12/02 04:13:26;;;;;;;;;20.40;18.60;;;;;4.44;81.45;100588.50;5096164;28;8840;-58
2022/12/02 04:15:54;;;;;;;;;21.60;18.60;;;;;4.43;81.62;100584.16;5095916;28;8844;-58
2022/12/02 04:18:23;;;;;;;;;19.40;16.00;;;;;4.42;81.75;100577.16;5096008;28;8934;-59
2022/12/02 04:20:51;;;;;;;;;17.20;13.40;;;;;4.43;81.78;100578.88;5095766;28;8827;-59
2022/12/02 04:23:18;;;;;;;;;13.80;13.80;;;;;4.43;82.11;100570.97;5095714;28;8848;-59
2022/12/02 04:25:46;;;;;;;;;13.00;12.60;;;;;4.46;81.68;100576.97;5096124;28;9596;-59
2022/12/02 04:28:13;;;;;;;;;14.80;13.80;;;;;4.46;81.75;100579.59;5095457;28;8839;-58
2022/12/02 04:30:42;;;;;;;;;11.20;10.80;;;;;4.45;81.50;100575.25;5095853;28;9590;-57
2022/12/02 04:33:10;;;;;;;;;19.40;16.80;;;;;4.44;81.47;100570.03;5095884;28;8908;-58
2022/12/02 04:35:38;;;;;;;;;21.20;18.00;;;;;4.42;82.02;100564.81;5095976;28;8850;-59
2022/12/02 04:38:05;;;;;;;;;12.40;12.00;;;;;4.42;81.50;100566.63;5096114;28;8828;-59
2022/12/02 04:40:38;;;;;;;;;8.20;6.60;;;;;4.42;81.64;100566.63;5095867;28;8820;-59
2022/12/02 04:43:06;;;;;;;;;11.60;8.20;;;;;4.41;81.61;100570.19;5096073;28;8858;-57
2022/12/02 04:45:33;;;;;;;;;15.00;13.00;;;;;4.41;82.04;100571.03;5095597;28;8844;-59
2022/12/02 04:48:01;;;;;;;;;18.20;16.60;;;;;4.42;81.63;100572.72;5095881;28;8901;-58
2022/12/02 04:50:29;;;;;;;;;21.80;17.60;;;;;4.44;82.02;100575.31;5095472;28;8820;-59
2022/12/02 04:52:56;;;;;;;;;12.60;10.00;;;;;4.41;81.78;100573.66;5095102;28;8900;-58
2022/12/02 04:55:25;;;;;;;;;16.40;14.60;;;;;4.43;81.98;100573.59;5093354;28;8843;-59
2022/12/02 04:57:53;;;;;;;;;15.60;14.40;;;;;4.43;82.15;100576.22;5093777;28;8839;-58
2022/12/02 05:00:21;;;;;;;;;17.80;15.00;;;;;4.42;82.25;100567.47;5093812;28;9505;-59
2022/12/02 05:02:48;;;;;;;;;12.80;12.20;;;;;4.42;81.57;100566.63;5092907;28;8831;-58
2022/12/02 05:05:16;;;;;;;;;20.20;17.20;;;;;4.44;81.49;100570.03;5093742;28;8808;-58
2022/12/02 05:07:45;;;;;;;;;16.80;13.40;;;;;4.44;82.17;100564.75;5093582;28;8839;-56
2022/12/02 05:10:13;;;;;;;;;16.20;12.60;;;;;4.42;82.21;100564.81;5093497;28;8823;-58
2022/12/02 05:12:41;;;;;;;;;20.00;14.60;;;;;4.43;82.22;100563.06;5092641;28;8828;-59
2022/12/02 05:15:08;;;;;;;;;17.20;13.00;;;;;4.44;82.01;100554.22;5092807;28;8869;-58
2022/12/02 05:17:36;;;;;;;;;19.80;15.60;;;;;4.44;82.34;100552.44;5092345;28;8835;-58
2022/12/02 05:20:09;;;;;;;;;10.00;8.20;;;;;4.45;81.69;100548.88;5092268;28;8828;-59
2022/12/02 05:22:39;;;;;;;;;13.80;11.00;;;;;4.45;81.59;100561.19;5093580;28;8827;-59
2022/12/02 05:25:14;;;;;;;;;15.40;9.60;;;;;4.45;82.39;100550.66;5093731;28;8819;-58
2022/12/02 05:27:41;;;;;;;;;15.00;13.00;;;;;4.44;81.52;100543.66;5094240;28;8828;-57
2022/12/02 05:30:11;;;;;;;;;12.20;10.40;;;;;4.45;81.98;100545.38;5093008;28;8859;-59
2022/12/02 05:32:38;;;;;;;;;17.00;14.00;;;;;4.45;81.59;100540.09;5094656;28;8924;-59
2022/12/02 05:35:06;;;;;;;;;17.60;14.00;;;;;4.44;81.81;100541.03;5095178;28;9485;-58
2022/12/02 05:37:33;;;;;;;;;22.60;20.40;;;;;4.41;82.15;100539.38;5094861;28;8823;-58
2022/12/02 05:40:01;;;;;;;;;12.60;12.00;;;;;4.42;81.92;100540.25;5094508;28;9555;-58
2022/12/02 05:42:30;;;;;;;;;14.20;13.40;;;;;4.41;81.71;100542.03;5094141;28;8850;-57
2022/12/02 05:44:57;;;;;;;;;16.00;12.20;;;;;4.42;82.32;100534.97;5094191;28;8859;-59
2022/12/02 05:47:25;;;;;;;;;17.00;15.80;;;;;4.43;81.62;100534.06;5094340;28;8839;-58
2022/12/02 05:49:53;;;;;;;;;7.60;6.20;;;;;4.45;82.27;100540.09;5094400;28;8823;-58
2022/12/02 05:52:20;;;;;;;;;22.00;18.40;;;;;4.43;82.05;100539.31;5094809;28;8836;-57
2022/12/02 05:54:49;;;;;;;;;19.20;16.80;;;;;4.44;82.09;100543.66;5094892;28;8848;-58
2022/12/02 05:57:17;;;;;;;;;20.60;17.80;;;;;4.43;81.70;100549.88;5094734;28;8835;-59
2022/12/02 05:59:50;;;;;;;;;12.80;12.00;;;;;4.44;81.67;100538.41;5094485;28;8816;-59
2022/12/02 06:02:18;;;;;;;;;13.40;10.60;;;;;4.44;81.64;100541.91;5094417;28;8816;-58
2022/12/02 06:04:46;;;;;;;;;9.60;9.00;;;;;4.44;82.07;100549.81;5094677;28;8835;-58
2022/12/02 06:07:16;;;;;;;;;15.80;11.60;;;;;4.43;81.60;100541.97;5098222;28;8946;-59
2022/12/02 06:09:43;;;;;;;;;11.00;9.60;;;;;4.45;81.93;100542.75;5098537;28;8835;-59
2022/12/02 06:12:11;;;;;;;;;19.20;15.20;;;;;4.46;82.13;100544.44;5097754;28;8840;-59
2022/12/02 06:14:39;;;;;;;;;21.20;16.60;;;;;4.44;81.59;100539.25;5097508;28;8856;-59
2022/12/02 06:17:06;;;;;;;;;2.40;1.20;;;;;4.44;82.09;100544.53;5097176;28;8807;-59
2022/12/02 06:19:34;;;;;;;;;7.20;3.60;;;;;4.42;82.13;100550.81;5097652;28;8812;-59
2022/12/02 06:22:04;;;;;;;;;13.40;12.80;;;;;4.40;81.74;100556.13;5097059;28;8823;-58
2022/12/02 06:24:31;;;;;;;;;13.00;11.80;;;;;4.39;81.57;100558.81;5097149;28;9539;-58
2022/12/02 06:26:59;;;;;;;;;9.80;9.00;;;;;4.38;81.62;100557.13;5097166;28;9613;-57
2022/12/02 06:29:27;;;;;;;;;14.20;13.00;;;;;4.38;81.79;100557.13;5096312;28;8827;-58
2022/12/02 06:31:55;;;;;;;;;17.60;15.40;;;;;4.38;81.82;100554.47;5095851;28;8836;-57
2022/12/02 06:34:23;;;;;;;;;16.40;15.00;;;;;4.41;81.57;100557.00;5095186;28;8850;-58
2022/12/02 06:36:50;;;;;;;;;14.20;11.20;;;;;4.40;81.73;100561.41;5094983;28;8823;-59
2022/12/02 06:39:18;;;;;;;;;9.80;6.80;;;;;4.39;82.33;100561.47;5094745;28;8824;-58
2022/12/02 06:41:46;;;;;;;;;10.00;7.00;;;;;4.40;82.16;100558.78;5094739;28;8831;-58
2022/12/02 06:46:59;;;;;;;;;15.20;14.60;;;;;4.39;81.61;100553.56;5094515;28;8871;-59
2022/12/02 06:49:27;;;;;;;;;12.40;11.20;;;;;4.37;81.57;100555.41;5093941;28;8839;-58
2022/12/02 06:51:54;;;;;;;;;14.20;13.60;;;;;4.35;82.00;100557.28;5093330;28;8958;-58
2022/12/02 06:54:22;;;;;;;;;14.20;12.80;;;;;4.36;82.10;100556.34;5093812;28;8827;-57
2022/12/02 06:56:50;;;;;;;;;18.40;15.00;;;;;4.36;81.76;100558.97;5093280;28;8855;-58
2022/12/02 06:59:18;;;;;;;;;6.60;1.80;;;;;4.36;81.64;100558.97;5091049;28;8835;-58
2022/12/02 07:01:46;;;;;;;;;14.40;10.20;;;;;4.36;81.63;100553.72;5091524;28;8843;-58
2022/12/02 07:04:14;;;;;;;;;15.80;15.00;;;;;4.36;82.13;100556.34;5091409;28;8831;-59
2022/12/02 07:06:42;;;;;;;;;17.40;16.60;;;;;4.35;81.54;100549.38;5091872;28;8838;-59
2022/12/02 07:09:10;;;;;;;;;13.80;12.80;;;;;4.35;82.17;100554.63;5089957;28;8839;-57
2022/12/02 07:11:50;;;;;;;;;15.40;13.40;;;;;4.36;82.10;100553.72;5088566;28;8850;-58
2022/12/02 07:14:18;;;;;;;;;15.40;15.20;;;;;4.34;81.68;100561.66;5089927;28;9723;-58
2022/12/02 07:16:46;;;;;;;;;17.40;16.20;;;;;4.31;81.54;100553.03;5089528;28;8997;-58
2022/12/02 07:19:14;;;;;;;;;12.00;11.80;;;;;4.29;81.60;100554.91;5090794;28;8991;-58
2022/12/02 07:21:42;;;;;;;;;14.20;12.80;;;;;4.26;81.83;100555.88;5091672;28;8857;-58
2022/12/02 07:24:09;;;;;;;;;13.80;11.80;;;;;4.27;81.58;100557.59;5092780;28;8828;-57
2022/12/02 07:26:37;;;;;;;;;8.20;6.00;;;;;4.25;82.12;100553.34;5093076;28;8828;-58
2022/12/02 07:29:05;;;;;;;;;14.00;12.80;;;;;4.25;81.58;100554.19;5093188;28;8815;-59
2022/12/02 07:31:43;;;;;;;;;15.20;13.00;;;;;4.25;82.37;100556.81;5093472;28;8859;-57
2022/12/02 07:34:12;;;;;;;;;14.60;10.80;;;;;4.22;81.35;100553.47;5092200;28;8986;-58
2022/12/02 07:36:39;;;;;;;;;13.00;12.00;;;;;4.20;82.12;100553.50;5091229;28;9533;-58
2022/12/02 07:39:07;;;;;;;;;15.20;14.20;;;;;4.21;82.02;100554.38;5091491;28;8827;-57
2022/12/02 07:41:35;;;;;;;;;14.20;10.40;;;;;4.21;82.08;100551.75;5092779;28;8831;-58
2022/12/02 07:44:04;;;;;;;;;18.60;15.60;;;;;4.20;82.19;100550.88;5093524;28;8846;-58
2022/12/02 07:46:32;;;;;;;;;14.00;12.40;;;;;4.21;81.57;100547.34;5093709;28;8828;-58
2022/12/02 07:48:59;;;;;;;;;12.80;12.40;;;;;4.21;82.04;100552.63;5094106;28;8827;-58
2022/12/02 07:51:28;;;;;;;;;9.00;7.00;;;;;4.22;82.12;100548.19;5094266;28;8828;-58
2022/12/02 07:53:55;;;;;;;;;14.20;12.60;;;;;4.22;82.06;100548.19;5094745;28;8831;-58
2022/12/02 07:56:23;;;;;;;;;6.80;5.60;;;;;4.22;81.72;100554.31;5094095;28;8867;-57
2022/12/02 07:58:51;;;;;;;;;16.60;15.40;;;;;4.22;81.95;100554.31;5094467;28;8831;-57
2022/12/02 08:01:39;;;;;;;;;6.80;4.40;;;;;4.22;81.69;100548.19;5093755;28;8844;-58
2022/12/02 08:04:07;;;;;;;;;16.00;15.00;;;;;4.21;81.81;100542.09;5093984;28;8839;-57
2022/12/02 08:06:35;;;;;;;;;13.20;11.00;;;;;4.21;82.01;100551.75;5094372;28;8917;-58
2022/12/02 08:09:06;;;;;;;;;19.00;14.20;;;;;4.20;82.06;100547.41;5094493;28;8831;-57
2022/12/02 08:11:34;;;;;;;;;13.40;11.40;;;;;4.21;81.98;100541.22;5093682;28;8924;-59
2022/12/02 08:14:02;;;;;;;;;14.00;12.60;;;;;4.21;81.46;100543.84;5093620;28;8844;-59
2022/12/02 08:16:30;;;;;;;;;10.00;9.20;;;;;4.22;81.35;100542.91;5094130;28;8836;-59
2022/12/02 08:19:00;;;;;;;;;18.40;16.80;;;;;4.21;81.46;100547.34;5094377;28;8843;-59
2022/12/02 08:21:29;;;;;;;;;13.40;12.00;;;;;4.22;81.60;100553.47;5093248;28;8823;-59
2022/12/02 08:23:57;;;;;;;;;14.20;12.60;;;;;4.23;81.46;100549.91;5093085;28;9618;-59
2022/12/02 08:26:25;;;;;;;;;12.80;12.60;;;;;4.22;81.38;100543.78;5092199;28;8839;-58
2022/12/02 08:28:54;;;;;;;;;9.40;7.40;;;;;4.21;81.80;100538.56;5091742;28;8920;-59
2022/12/02 08:31:21;;;;;;;;;15.80;14.40;;;;;4.20;81.86;100537.69;5091548;28;8831;-59
2022/12/02 08:33:49;;;;;;;;;15.00;14.80;;;;;4.19;81.78;100549.16;5091288;28;8850;-59
2022/12/02 08:36:17;;;;;;;;;9.00;8.20;;;;;4.20;81.33;100544.78;5083661;28;8815;-58
2022/12/02 08:38:45;;;;;;;;;14.20;9.40;;;;;4.21;81.88;100547.34;5091151;28;8819;-59
2022/12/02 08:41:13;;;;;;;;;12.40;9.60;;;;;4.19;81.35;100548.34;5092616;28;8947;-58
2022/12/02 08:43:41;;;;;;;;;15.80;12.80;;;;;4.19;81.38;100540.44;5092043;28;8831;-56
2022/12/02 08:46:10;;;;;;;;;11.20;9.60;;;;;4.18;81.67;100547.47;5091468;28;9246;-58
2022/12/02 08:48:38;;;;;;;;;10.00;10.00;;;;;4.19;81.86;100548.34;5091869;28;8843;-58
2022/12/02 08:51:06;;;;;;;;;16.80;15.00;;;;;4.17;81.73;100544.88;5091010;28;9138;-58
2022/12/02 08:53:34;;;;;;;;;14.20;11.60;;;;;4.18;81.64;100541.34;5091317;28;8843;-56
2022/12/02 08:56:02;;;;;;;;;12.60;11.20;;;;;4.20;81.16;100544.78;5090016;28;8846;-59
2022/12/02 08:58:30;;;;;;;;;9.40;7.80;;;;;4.21;81.80;100546.47;5090693;28;8944;-57
2022/12/02 09:00:58;;;;;;;;;14.20;11.40;;;;;4.22;81.69;100554.31;5091186;28;8835;-58
2022/12/02 09:03:26;;;;;;;;;10.00;9.20;;;;;4.22;81.46;100554.31;5090060;28;8828;-58
2022/12/02 09:05:54;;;;;;;;;12.20;7.60;;;;;4.21;81.60;100554.38;5089387;28;8990;-58
2022/12/02 09:08:22;;;;;;;;;12.20;12.20;;;;;4.23;80.75;100565.72;5088617;28;8986;-58
2022/12/02 09:10:51;;;;;;;;;10.80;9.00;;;;;4.24;81.29;100562.16;5088318;28;8828;-57
2022/12/02 09:13:19;;;;;;;;;7.80;6.40;;;;;4.23;80.98;100553.41;5088857;28;9542;-58
2022/12/02 09:15:47;;;;;;;;;12.00;10.00;;;;;4.21;81.05;100554.38;5089174;28;8868;-58
2022/12/02 09:18:15;;;;;;;;;15.00;14.20;;;;;4.20;80.88;100557.94;5089314;28;8858;-56
2022/12/02 09:20:42;;;;;;;;;11.60;11.20;;;;;4.21;81.75;100563.16;5090296;28;8958;-58
2022/12/02 09:23:12;;;;;;;;;10.00;10.00;;;;;4.22;80.88;100553.47;5091706;28;8827;-57
2022/12/02 09:25:40;;;;;;;;;11.20;9.00;;;;;4.23;81.04;100560.44;5092492;28;8879;-57
2022/12/02 09:28:08;;;;;;;;;10.00;9.60;;;;;4.21;81.25;100557.03;5092448;28;8839;-59
2022/12/02 09:30:36;;;;;;;;;7.00;6.00;;;;;4.22;81.11;100559.59;5091310;28;8842;-57
2022/12/02 09:33:04;;;;;;;;;4.20;3.80;;;;;4.22;80.99;100564.00;5090168;28;8835;-58
2022/12/02 09:35:35;;;;;;;;;9.80;9.00;;;;;4.22;81.43;100553.47;5088538;28;8815;-56
2022/12/02 09:38:03;;;;;;;;;12.20;12.20;;;;;4.24;80.79;100563.00;5088604;28;8845;-58
2022/12/02 09:40:31;;;;;;;;;11.60;10.00;;;;;4.27;80.73;100564.66;5090624;28;8929;-56
2022/12/02 09:42:59;;;;;;;;;9.20;7.40;;;;;4.26;81.18;100561.16;5093880;28;8852;-56
2022/12/02 09:45:27;;;;;;;;;12.00;9.20;;;;;4.29;81.37;100557.53;5093043;28;8901;-58
2022/12/02 09:47:55;;;;;;;;;9.40;8.20;;;;;4.30;81.31;100557.47;5092608;28;8838;-58
2022/12/02 09:50:23;;;;;;;;;17.00;12.60;;;;;4.33;81.13;100552.06;5091064;28;8828;-59
2022/12/02 09:52:51;;;;;;;;;9.40;7.00;;;;;4.34;80.51;100559.03;5092975;28;8859;-58
2022/12/02 09:55:19;;;;;;;;;14.00;12.00;;;;;4.35;80.90;100549.38;5093006;28;8824;-57
2022/12/02 09:57:48;;;;;;;;;15.00;14.60;;;;;4.36;80.94;100551.94;5093273;28;8941;-58
2022/12/02 10:00:18;;;;;;;;;17.60;13.00;;;;;4.37;80.70;100547.50;5094338;28;8832;-56
2022/12/02 10:02:46;;;;;;;;;10.00;6.00;;;;;4.39;80.47;100550.91;5094519;28;8844;-57
2022/12/02 10:05:14;;;;;;;;;8.60;7.80;;;;;4.40;80.41;100542.94;5095160;28;8924;-57
2022/12/02 10:07:42;;;;;;;;;9.60;9.60;;;;;4.40;80.23;100544.75;5094604;28;8910;-59
2022/12/02 10:10:10;;;;;;;;;14.20;12.80;;;;;4.40;80.81;100550.03;5094994;28;8987;-59
2022/12/02 10:12:39;;;;;;;;;7.80;6.20;;;;;4.40;80.84;100542.13;5093708;28;8875;-58
2022/12/02 10:15:07;;;;;;;;;12.00;11.20;;;;;4.39;80.19;100543.88;5093018;28;8925;-59
2022/12/02 10:17:35;;;;;;;;;16.00;13.80;;;;;4.39;80.60;100540.38;5091930;28;9221;-59
2022/12/02 10:20:04;;;;;;;;;9.60;8.20;;;;;4.39;80.37;100545.66;5092950;28;8958;-58
2022/12/02 10:22:32;;;;;;;;;22.00;19.00;;;;;4.38;80.32;100554.47;5093192;28;8842;-58
2022/12/02 10:25:02;;;;;;;;;11.60;9.60;;;;;4.35;80.70;100557.28;5093059;28;8835;-58
2022/12/02 10:27:30;;;;;;;;;8.40;7.80;;;;;4.33;80.26;100551.22;5092983;28;8854;-58
2022/12/02 10:29:58;;;;;;;;;16.80;12.00;;;;;4.33;80.61;100543.31;5093349;28;8827;-59
2022/12/02 10:32:26;;;;;;;;;14.40;12.20;;;;;4.34;80.50;100539.75;5093031;28;8835;-59
2022/12/02 10:34:54;;;;;;;;;11.80;11.20;;;;;4.35;80.29;100547.56;5094171;28;8878;-58
2022/12/02 10:37:24;;;;;;;;;17.40;14.60;;;;;4.36;80.35;100545.78;5093312;28;9517;-59
2022/12/02 10:39:52;;;;;;;;;20.40;15.40;;;;;4.37;80.33;100534.31;5093743;28;8831;-59
2022/12/02 10:42:21;;;;;;;;;11.40;10.80;;;;;4.35;80.10;100531.75;5093607;28;9520;-59
2022/12/02 10:44:49;;;;;;;;;18.40;15.00;;;;;4.38;80.04;100529.00;5093632;28;8839;-59
2022/12/02 10:47:17;;;;;;;;;12.00;10.00;;;;;4.40;80.57;100529.78;5094320;28;9576;-59
2022/12/02 10:49:52;;;;;;;;;18.00;15.00;;;;;4.44;79.89;100523.44;5093314;28;8827;-58
2022/12/02 10:52:20;;;;;;;;;13.80;12.80;;;;;4.44;80.00;100533.13;5091603;28;8847;-59
2022/12/02 10:54:48;;;;;;;;;12.60;10.80;;;;;4.44;80.65;100519.94;5092945;28;8940;-58
2022/12/02 10:57:17;;;;;;;;;9.60;9.00;;;;;4.44;79.77;100527.84;5093362;28;8846;-59
2022/12/02 10:59:45;;;;;;;;;14.20;11.80;;;;;4.45;79.80;100521.66;5093242;28;8974;-58
2022/12/02 11:02:13;;;;;;;;;16.00;14.20;;;;;4.49;80.22;100510.06;5091829;28;8831;-59
2022/12/02 11:04:42;;;;;;;;;17.80;12.80;;;;;4.52;80.18;100517.81;5091585;28;8850;-58
2022/12/02 11:07:10;;;;;;;;;17.80;16.20;;;;;4.54;79.63;100508.03;5093709;28;8855;-59
2022/12/02 11:09:39;;;;;;;;;16.00;13.80;;;;;4.57;79.82;100514.03;5093117;28;8847;-58
2022/12/02 11:12:08;;;;;;;;;13.80;13.00;;;;;4.60;79.93;100513.91;5092245;28;9554;-59
2022/12/02 11:14:36;;;;;;;;;13.80;10.40;;;;;4.65;79.47;100503.97;5090845;28;8852;-59
2022/12/02 11:17:05;;;;;;;;;12.40;10.60;;;;;4.69;79.47;100502.06;5091550;28;8832;-58
2022/12/02 11:19:33;;;;;;;;;10.60;10.60;;;;;4.69;79.84;100500.28;5092776;28;8831;-59
2022/12/02 11:22:01;;;;;;;;;15.00;12.40;;;;;4.70;79.20;100507.25;5092532;28;8858;-58
2022/12/02 11:24:29;;;;;;;;;14.20;12.60;;;;;4.73;79.83;100504.47;5092963;28;8820;-59
2022/12/02 11:26:59;;;;;;;;;7.40;6.20;;;;;4.77;79.41;100510.47;5093714;28;8832;-58
2022/12/02 11:29:27;;;;;;;;;17.20;13.00;;;;;4.74;79.11;100498.28;5093863;28;8828;-59
2022/12/02 11:31:55;;;;;;;;;14.80;12.80;;;;;4.75;79.32;100504.41;5094452;28;8823;-58
2022/12/02 11:34:23;;;;;;;;;10.00;9.60;;;;;4.73;79.20;100499.19;5093251;28;8836;-59
2022/12/02 11:36:51;;;;;;;;;19.60;17.40;;;;;4.72;79.42;100502.75;5092800;28;8836;-58
2022/12/02 11:39:19;;;;;;;;;10.20;8.20;;;;;4.71;79.66;100497.59;5091990;28;8843;-59